sensor_id;sensor_type;location;lat;lon;timestamp;P1;durP1;ratioP1;P2;durP2;ratioP2
16460;SDS011;8341;42.048;24.650;2023-04-24T00:01:57;7.20;;;6.38;;
16460;SDS011;8341;42.048;24.650;2023-04-24T00:04:26;8.35;;;6.00;;
16460;SDS011;8341;42.048;24.650;2023-04-24T00:06:52;6.18;;;5.63;;
16460;SDS011;8341;42.048;24.650;2023-04-24T00:09:22;7.25;;;5.93;;
16460;SDS011;8341;42.048;24.650;2023-04-24T00:11:49;6.50;;;5.90;;
16460;SDS011;8341;42.048;24.650;2023-04-24T00:14:16;6.03;;;5.40;;
16460;SDS011;8341;42.048;24.650;2023-04-24T00:16:42;6.57;;;5.97;;
16460;SDS011;8341;42.048;24.650;2023-04-24T00:19:09;6.40;;;5.75;;
16460;SDS011;8341;42.048;24.650;2023-04-24T00:21:39;6.30;;;5.70;;
16460;SDS011;8341;42.048;24.650;2023-04-24T00:24:06;7.30;;;5.70;;
16460;SDS011;8341;42.048;24.650;2023-04-24T00:26:34;7.60;;;5.68;;
16460;SDS011;8341;42.048;24.650;2023-04-24T00:29:00;6.60;;;5.90;;
16460;SDS011;8341;42.048;24.650;2023-04-24T00:31:27;6.75;;;6.13;;
16460;SDS011;8341;42.048;24.650;2023-04-24T00:33:54;7.43;;;6.18;;
16460;SDS011;8341;42.048;24.650;2023-04-24T00:36:21;6.82;;;6.00;;
16460;SDS011;8341;42.048;24.650;2023-04-24T00:38:49;7.32;;;6.25;;
16460;SDS011;8341;42.048;24.650;2023-04-24T00:41:16;8.98;;;5.75;;
16460;SDS011;8341;42.048;24.650;2023-04-24T00:43:42;6.93;;;5.40;;
16460;SDS011;8341;42.048;24.650;2023-04-24T00:46:09;6.25;;;5.63;;
16460;SDS011;8341;42.048;24.650;2023-04-24T00:48:37;7.50;;;5.63;;
16460;SDS011;8341;42.048;24.650;2023-04-24T00:51:05;10.40;;;6.03;;
16460;SDS011;8341;42.048;24.650;2023-04-24T00:53:32;6.43;;;5.78;;
16460;SDS011;8341;42.048;24.650;2023-04-24T00:56:00;6.70;;;5.80;;
16460;SDS011;8341;42.048;24.650;2023-04-24T00:58:27;6.07;;;5.47;;
16460;SDS011;8341;42.048;24.650;2023-04-24T01:00:55;6.32;;;5.47;;
16460;SDS011;8341;42.048;24.650;2023-04-24T01:03:24;6.15;;;5.65;;
16460;SDS011;8341;42.048;24.650;2023-04-24T01:05:54;6.82;;;5.35;;
16460;SDS011;8341;42.048;24.650;2023-04-24T01:08:22;8.02;;;6.00;;
16460;SDS011;8341;42.048;24.650;2023-04-24T01:10:50;9.63;;;6.50;;
16460;SDS011;8341;42.048;24.650;2023-04-24T01:13:20;6.70;;;5.85;;
16460;SDS011;8341;42.048;24.650;2023-04-24T01:15:47;7.97;;;5.38;;
16460;SDS011;8341;42.048;24.650;2023-04-24T01:18:14;8.05;;;6.50;;
16460;SDS011;8341;42.048;24.650;2023-04-24T01:20:42;8.10;;;6.25;;
16460;SDS011;8341;42.048;24.650;2023-04-24T01:23:13;6.55;;;5.95;;
16460;SDS011;8341;42.048;24.650;2023-04-24T01:25:40;8.68;;;5.72;;
16460;SDS011;8341;42.048;24.650;2023-04-24T01:28:07;9.80;;;6.47;;
16460;SDS011;8341;42.048;24.650;2023-04-24T01:30:34;7.72;;;6.35;;
16460;SDS011;8341;42.048;24.650;2023-04-24T01:33:01;8.52;;;7.03;;
16460;SDS011;8341;42.048;24.650;2023-04-24T01:35:28;7.82;;;6.80;;
16460;SDS011;8341;42.048;24.650;2023-04-24T01:37:55;8.88;;;6.10;;
16460;SDS011;8341;42.048;24.650;2023-04-24T01:40:23;7.75;;;6.30;;
16460;SDS011;8341;42.048;24.650;2023-04-24T01:42:50;7.30;;;5.78;;
16460;SDS011;8341;42.048;24.650;2023-04-24T01:45:18;8.52;;;6.38;;
16460;SDS011;8341;42.048;24.650;2023-04-24T01:47:45;7.70;;;6.30;;
16460;SDS011;8341;42.048;24.650;2023-04-24T01:50:14;7.45;;;6.35;;
16460;SDS011;8341;42.048;24.650;2023-04-24T01:52:41;7.50;;;6.70;;
16460;SDS011;8341;42.048;24.650;2023-04-24T01:55:08;9.07;;;6.70;;
16460;SDS011;8341;42.048;24.650;2023-04-24T01:57:37;7.47;;;5.80;;
16460;SDS011;8341;42.048;24.650;2023-04-24T02:00:04;8.32;;;6.45;;
16460;SDS011;8341;42.048;24.650;2023-04-24T02:02:32;9.57;;;6.28;;
16460;SDS011;8341;42.048;24.650;2023-04-24T02:04:59;6.80;;;6.10;;
16460;SDS011;8341;42.048;24.650;2023-04-24T02:07:26;7.57;;;6.20;;
16460;SDS011;8341;42.048;24.650;2023-04-24T02:09:53;8.30;;;5.82;;
16460;SDS011;8341;42.048;24.650;2023-04-24T02:12:20;7.28;;;6.38;;
16460;SDS011;8341;42.048;24.650;2023-04-24T02:14:48;8.80;;;6.60;;
16460;SDS011;8341;42.048;24.650;2023-04-24T02:17:15;8.70;;;6.93;;
16460;SDS011;8341;42.048;24.650;2023-04-24T02:19:42;9.88;;;6.28;;
16460;SDS011;8341;42.048;24.650;2023-04-24T02:22:09;7.43;;;6.55;;
16460;SDS011;8341;42.048;24.650;2023-04-24T02:24:36;8.00;;;6.25;;
16460;SDS011;8341;42.048;24.650;2023-04-24T02:27:03;10.07;;;6.38;;
16460;SDS011;8341;42.048;24.650;2023-04-24T02:29:30;7.25;;;6.35;;
16460;SDS011;8341;42.048;24.650;2023-04-24T02:31:58;9.68;;;6.70;;
16460;SDS011;8341;42.048;24.650;2023-04-24T02:34:25;10.48;;;6.25;;
16460;SDS011;8341;42.048;24.650;2023-04-24T02:36:51;7.50;;;6.45;;
16460;SDS011;8341;42.048;24.650;2023-04-24T02:39:19;9.43;;;6.35;;
16460;SDS011;8341;42.048;24.650;2023-04-24T02:41:46;6.93;;;6.30;;
16460;SDS011;8341;42.048;24.650;2023-04-24T02:44:12;8.63;;;7.10;;
16460;SDS011;8341;42.048;24.650;2023-04-24T02:46:39;8.75;;;6.25;;
16460;SDS011;8341;42.048;24.650;2023-04-24T02:49:08;7.57;;;6.00;;
16460;SDS011;8341;42.048;24.650;2023-04-24T02:51:37;10.55;;;7.97;;
16460;SDS011;8341;42.048;24.650;2023-04-24T02:54:06;9.63;;;6.85;;
16460;SDS011;8341;42.048;24.650;2023-04-24T02:56:33;8.38;;;6.82;;
16460;SDS011;8341;42.048;24.650;2023-04-24T02:59:00;13.48;;;7.60;;
16460;SDS011;8341;42.048;24.650;2023-04-24T03:01:26;10.55;;;6.60;;
16460;SDS011;8341;42.048;24.650;2023-04-24T03:03:53;7.63;;;6.80;;
16460;SDS011;8341;42.048;24.650;2023-04-24T03:06:21;8.35;;;7.32;;
16460;SDS011;8341;42.048;24.650;2023-04-24T03:08:48;8.32;;;6.85;;
16460;SDS011;8341;42.048;24.650;2023-04-24T03:11:15;9.10;;;6.78;;
16460;SDS011;8341;42.048;24.650;2023-04-24T03:13:41;7.13;;;6.43;;
16460;SDS011;8341;42.048;24.650;2023-04-24T03:16:08;8.88;;;6.97;;
16460;SDS011;8341;42.048;24.650;2023-04-24T03:18:35;8.38;;;6.53;;
16460;SDS011;8341;42.048;24.650;2023-04-24T03:21:02;7.75;;;6.43;;
16460;SDS011;8341;42.048;24.650;2023-04-24T03:23:31;9.82;;;7.22;;
16460;SDS011;8341;42.048;24.650;2023-04-24T03:25:57;9.25;;;7.78;;
16460;SDS011;8341;42.048;24.650;2023-04-24T03:28:24;8.20;;;7.00;;
16460;SDS011;8341;42.048;24.650;2023-04-24T03:30:51;8.77;;;7.00;;
16460;SDS011;8341;42.048;24.650;2023-04-24T03:33:18;10.95;;;7.30;;
16460;SDS011;8341;42.048;24.650;2023-04-24T03:35:44;7.72;;;6.88;;
16460;SDS011;8341;42.048;24.650;2023-04-24T03:38:11;7.72;;;6.90;;
16460;SDS011;8341;42.048;24.650;2023-04-24T03:40:39;8.98;;;6.75;;
16460;SDS011;8341;42.048;24.650;2023-04-24T03:43:06;10.25;;;6.78;;
16460;SDS011;8341;42.048;24.650;2023-04-24T03:45:33;9.65;;;7.43;;
16460;SDS011;8341;42.048;24.650;2023-04-24T03:47:59;8.98;;;7.28;;
16460;SDS011;8341;42.048;24.650;2023-04-24T03:50:26;8.77;;;7.55;;
16460;SDS011;8341;42.048;24.650;2023-04-24T03:52:54;8.68;;;7.65;;
16460;SDS011;8341;42.048;24.650;2023-04-24T03:55:21;8.63;;;7.72;;
16460;SDS011;8341;42.048;24.650;2023-04-24T03:57:49;12.57;;;7.97;;
16460;SDS011;8341;42.048;24.650;2023-04-24T04:00:16;9.75;;;8.30;;
16460;SDS011;8341;42.048;24.650;2023-04-24T04:02:43;11.30;;;9.27;;
16460;SDS011;8341;42.048;24.650;2023-04-24T04:05:10;13.30;;;9.98;;
16460;SDS011;8341;42.048;24.650;2023-04-24T04:07:37;11.52;;;9.05;;
16460;SDS011;8341;42.048;24.650;2023-04-24T04:10:04;9.20;;;7.63;;
16460;SDS011;8341;42.048;24.650;2023-04-24T04:12:32;11.15;;;7.72;;
16460;SDS011;8341;42.048;24.650;2023-04-24T04:15:00;10.13;;;7.78;;
16460;SDS011;8341;42.048;24.650;2023-04-24T04:17:27;11.80;;;8.38;;
16460;SDS011;8341;42.048;24.650;2023-04-24T04:19:53;11.50;;;8.88;;
16460;SDS011;8341;42.048;24.650;2023-04-24T04:22:21;9.75;;;8.75;;
16460;SDS011;8341;42.048;24.650;2023-04-24T04:24:48;11.60;;;8.70;;
16460;SDS011;8341;42.048;24.650;2023-04-24T04:27:16;9.18;;;7.85;;
16460;SDS011;8341;42.048;24.650;2023-04-24T04:29:43;8.57;;;6.95;;
16460;SDS011;8341;42.048;24.650;2023-04-24T04:32:12;7.60;;;6.90;;
16460;SDS011;8341;42.048;24.650;2023-04-24T04:34:38;8.68;;;7.07;;
16460;SDS011;8341;42.048;24.650;2023-04-24T04:37:05;8.05;;;6.70;;
16460;SDS011;8341;42.048;24.650;2023-04-24T04:39:32;7.85;;;6.97;;
16460;SDS011;8341;42.048;24.650;2023-04-24T04:41:59;9.50;;;6.80;;
16460;SDS011;8341;42.048;24.650;2023-04-24T04:44:25;9.38;;;6.93;;
16460;SDS011;8341;42.048;24.650;2023-04-24T04:46:53;9.38;;;7.28;;
16460;SDS011;8341;42.048;24.650;2023-04-24T04:49:22;8.07;;;6.80;;
16460;SDS011;8341;42.048;24.650;2023-04-24T04:51:49;7.63;;;6.57;;
16460;SDS011;8341;42.048;24.650;2023-04-24T04:54:17;13.80;;;9.80;;
16460;SDS011;8341;42.048;24.650;2023-04-24T04:56:43;11.63;;;7.55;;
16460;SDS011;8341;42.048;24.650;2023-04-24T04:59:10;7.68;;;6.88;;
16460;SDS011;8341;42.048;24.650;2023-04-24T05:01:37;9.02;;;6.70;;
16460;SDS011;8341;42.048;24.650;2023-04-24T05:04:04;7.05;;;6.35;;
16460;SDS011;8341;42.048;24.650;2023-04-24T05:06:32;8.23;;;6.80;;
16460;SDS011;8341;42.048;24.650;2023-04-24T05:08:59;8.70;;;6.68;;
16460;SDS011;8341;42.048;24.650;2023-04-24T05:11:26;9.20;;;8.30;;
16460;SDS011;8341;42.048;24.650;2023-04-24T05:13:53;8.40;;;6.95;;
16460;SDS011;8341;42.048;24.650;2023-04-24T05:16:19;8.82;;;7.47;;
16460;SDS011;8341;42.048;24.650;2023-04-24T05:18:46;9.25;;;6.78;;
16460;SDS011;8341;42.048;24.650;2023-04-24T05:21:13;7.53;;;6.82;;
16460;SDS011;8341;42.048;24.650;2023-04-24T05:23:41;12.02;;;7.22;;
16460;SDS011;8341;42.048;24.650;2023-04-24T05:26:08;11.60;;;8.43;;
16460;SDS011;8341;42.048;24.650;2023-04-24T05:28:35;12.38;;;8.65;;
16460;SDS011;8341;42.048;24.650;2023-04-24T05:31:01;10.13;;;9.00;;
16460;SDS011;8341;42.048;24.650;2023-04-24T05:33:28;11.80;;;8.93;;
16460;SDS011;8341;42.048;24.650;2023-04-24T05:35:55;15.15;;;12.30;;
16460;SDS011;8341;42.048;24.650;2023-04-24T05:38:22;21.80;;;15.63;;
16460;SDS011;8341;42.048;24.650;2023-04-24T05:40:50;22.08;;;16.42;;
16460;SDS011;8341;42.048;24.650;2023-04-24T05:43:17;24.17;;;18.88;;
16460;SDS011;8341;42.048;24.650;2023-04-24T05:45:44;26.35;;;20.17;;
16460;SDS011;8341;42.048;24.650;2023-04-24T05:48:11;25.63;;;20.40;;
16460;SDS011;8341;42.048;24.650;2023-04-24T05:50:38;25.42;;;19.42;;
16460;SDS011;8341;42.048;24.650;2023-04-24T05:53:05;28.73;;;20.13;;
16460;SDS011;8341;42.048;24.650;2023-04-24T05:55:32;22.35;;;18.25;;
16460;SDS011;8341;42.048;24.650;2023-04-24T05:58:00;25.65;;;19.75;;
16460;SDS011;8341;42.048;24.650;2023-04-24T06:00:27;23.70;;;16.58;;
16460;SDS011;8341;42.048;24.650;2023-04-24T06:02:54;17.45;;;13.13;;
16460;SDS011;8341;42.048;24.650;2023-04-24T06:05:21;22.83;;;17.90;;
16460;SDS011;8341;42.048;24.650;2023-04-24T06:07:48;25.15;;;18.38;;
16460;SDS011;8341;42.048;24.650;2023-04-24T06:10:15;27.48;;;18.80;;
16460;SDS011;8341;42.048;24.650;2023-04-24T06:12:42;25.75;;;18.83;;
16460;SDS011;8341;42.048;24.650;2023-04-24T06:15:10;27.02;;;18.73;;
16460;SDS011;8341;42.048;24.650;2023-04-24T06:17:37;21.52;;;16.50;;
16460;SDS011;8341;42.048;24.650;2023-04-24T06:20:05;21.60;;;17.10;;
16460;SDS011;8341;42.048;24.650;2023-04-24T06:22:33;22.83;;;16.55;;
16460;SDS011;8341;42.048;24.650;2023-04-24T06:25:00;19.42;;;17.20;;
16460;SDS011;8341;42.048;24.650;2023-04-24T06:27:27;19.17;;;14.20;;
16460;SDS011;8341;42.048;24.650;2023-04-24T06:29:55;13.32;;;10.90;;
16460;SDS011;8341;42.048;24.650;2023-04-24T06:32:23;11.57;;;10.30;;
16460;SDS011;8341;42.048;24.650;2023-04-24T06:34:51;9.65;;;8.65;;
16460;SDS011;8341;42.048;24.650;2023-04-24T06:37:18;10.85;;;8.70;;
16460;SDS011;8341;42.048;24.650;2023-04-24T06:39:45;8.93;;;7.53;;
16460;SDS011;8341;42.048;24.650;2023-04-24T06:42:12;8.30;;;7.53;;
16460;SDS011;8341;42.048;24.650;2023-04-24T06:44:39;12.82;;;8.85;;
16460;SDS011;8341;42.048;24.650;2023-04-24T06:47:06;11.60;;;9.68;;
16460;SDS011;8341;42.048;24.650;2023-04-24T06:49:36;11.40;;;8.68;;
16460;SDS011;8341;42.048;24.650;2023-04-24T06:52:03;10.88;;;8.07;;
16460;SDS011;8341;42.048;24.650;2023-04-24T06:54:30;11.60;;;8.05;;
16460;SDS011;8341;42.048;24.650;2023-04-24T06:56:57;9.32;;;8.43;;
16460;SDS011;8341;42.048;24.650;2023-04-24T06:59:25;10.45;;;8.60;;
16460;SDS011;8341;42.048;24.650;2023-04-24T07:01:52;11.48;;;9.13;;
16460;SDS011;8341;42.048;24.650;2023-04-24T07:04:19;11.27;;;9.23;;
16460;SDS011;8341;42.048;24.650;2023-04-24T07:06:47;11.90;;;9.63;;
16460;SDS011;8341;42.048;24.650;2023-04-24T07:09:16;9.63;;;8.63;;
16460;SDS011;8341;42.048;24.650;2023-04-24T07:11:43;11.40;;;9.65;;
16460;SDS011;8341;42.048;24.650;2023-04-24T07:14:10;10.48;;;9.38;;
16460;SDS011;8341;42.048;24.650;2023-04-24T07:16:37;11.40;;;9.93;;
16460;SDS011;8341;42.048;24.650;2023-04-24T07:19:04;12.50;;;10.23;;
16460;SDS011;8341;42.048;24.650;2023-04-24T07:21:30;12.63;;;10.65;;
16460;SDS011;8341;42.048;24.650;2023-04-24T07:23:59;15.93;;;11.45;;
16460;SDS011;8341;42.048;24.650;2023-04-24T07:26:26;14.65;;;11.43;;
16460;SDS011;8341;42.048;24.650;2023-04-24T07:28:53;13.77;;;11.48;;
16460;SDS011;8341;42.048;24.650;2023-04-24T07:31:19;12.10;;;10.52;;
16460;SDS011;8341;42.048;24.650;2023-04-24T07:33:47;13.82;;;11.60;;
16460;SDS011;8341;42.048;24.650;2023-04-24T07:36:14;12.32;;;11.00;;
16460;SDS011;8341;42.048;24.650;2023-04-24T07:38:44;12.40;;;11.05;;
16460;SDS011;8341;42.048;24.650;2023-04-24T07:41:12;13.55;;;11.48;;
16460;SDS011;8341;42.048;24.650;2023-04-24T07:43:39;12.65;;;11.23;;
16460;SDS011;8341;42.048;24.650;2023-04-24T07:46:06;14.30;;;11.77;;
16460;SDS011;8341;42.048;24.650;2023-04-24T07:48:33;16.60;;;12.57;;
16460;SDS011;8341;42.048;24.650;2023-04-24T07:51:00;13.73;;;12.27;;
16460;SDS011;8341;42.048;24.650;2023-04-24T07:53:27;19.15;;;12.25;;
16460;SDS011;8341;42.048;24.650;2023-04-24T07:55:54;16.42;;;12.20;;
16460;SDS011;8341;42.048;24.650;2023-04-24T07:58:22;14.60;;;11.70;;
16460;SDS011;8341;42.048;24.650;2023-04-24T08:00:49;16.10;;;11.48;;
16460;SDS011;8341;42.048;24.650;2023-04-24T08:03:16;15.32;;;11.38;;
16460;SDS011;8341;42.048;24.650;2023-04-24T08:05:44;14.88;;;11.32;;
16460;SDS011;8341;42.048;24.650;2023-04-24T08:08:11;13.63;;;11.30;;
16460;SDS011;8341;42.048;24.650;2023-04-24T08:10:38;13.75;;;10.88;;
16460;SDS011;8341;42.048;24.650;2023-04-24T08:13:05;13.32;;;10.50;;
16460;SDS011;8341;42.048;24.650;2023-04-24T08:15:33;13.98;;;10.63;;
16460;SDS011;8341;42.048;24.650;2023-04-24T08:18:00;12.25;;;9.30;;
16460;SDS011;8341;42.048;24.650;2023-04-24T08:20:27;12.13;;;9.93;;
16460;SDS011;8341;42.048;24.650;2023-04-24T08:22:54;10.60;;;9.50;;
16460;SDS011;8341;42.048;24.650;2023-04-24T08:25:21;9.50;;;8.15;;
16460;SDS011;8341;42.048;24.650;2023-04-24T08:27:49;9.80;;;8.57;;
16460;SDS011;8341;42.048;24.650;2023-04-24T08:30:16;10.68;;;8.75;;
16460;SDS011;8341;42.048;24.650;2023-04-24T08:32:44;9.63;;;8.43;;
16460;SDS011;8341;42.048;24.650;2023-04-24T08:58:30;11.52;;;10.25;;
16460;SDS011;8341;42.048;24.650;2023-04-24T09:00:57;12.80;;;8.95;;
16460;SDS011;8341;42.048;24.650;2023-04-24T09:03:26;14.15;;;10.52;;
16460;SDS011;8341;42.048;24.650;2023-04-24T09:05:54;19.27;;;11.40;;
16460;SDS011;8341;42.048;24.650;2023-04-24T09:08:22;14.90;;;11.55;;
16460;SDS011;8341;42.048;24.650;2023-04-24T09:10:51;14.60;;;12.13;;
16460;SDS011;8341;42.048;24.650;2023-04-24T09:13:18;16.08;;;11.18;;
16460;SDS011;8341;42.048;24.650;2023-04-24T09:15:47;14.23;;;10.48;;
16460;SDS011;8341;42.048;24.650;2023-04-24T09:18:14;13.75;;;10.82;;
16460;SDS011;8341;42.048;24.650;2023-04-24T09:21:00;12.23;;;10.60;;
16460;SDS011;8341;42.048;24.650;2023-04-24T09:23:28;14.38;;;11.20;;
16460;SDS011;8341;42.048;24.650;2023-04-24T09:25:56;11.57;;;10.38;;
16460;SDS011;8341;42.048;24.650;2023-04-24T09:28:27;16.02;;;10.48;;
16460;SDS011;8341;42.048;24.650;2023-04-24T09:31:07;11.77;;;9.85;;
16460;SDS011;8341;42.048;24.650;2023-04-24T09:33:35;12.05;;;9.43;;
16460;SDS011;8341;42.048;24.650;2023-04-24T09:36:02;12.20;;;9.98;;
16460;SDS011;8341;42.048;24.650;2023-04-24T09:38:31;11.98;;;9.60;;
16460;SDS011;8341;42.048;24.650;2023-04-24T09:41:00;11.52;;;9.45;;
16460;SDS011;8341;42.048;24.650;2023-04-24T09:43:28;13.20;;;9.88;;
16460;SDS011;8341;42.048;24.650;2023-04-24T09:45:56;11.63;;;9.05;;
16460;SDS011;8341;42.048;24.650;2023-04-24T09:48:32;13.15;;;9.07;;
16460;SDS011;8341;42.048;24.650;2023-04-24T09:51:00;11.02;;;8.20;;
16460;SDS011;8341;42.048;24.650;2023-04-24T09:53:28;9.90;;;8.35;;
16460;SDS011;8341;42.048;24.650;2023-04-24T09:56:01;11.98;;;9.05;;
16460;SDS011;8341;42.048;24.650;2023-04-24T09:58:29;11.18;;;9.05;;
16460;SDS011;8341;42.048;24.650;2023-04-24T10:00:56;10.60;;;9.13;;
16460;SDS011;8341;42.048;24.650;2023-04-24T10:03:24;10.07;;;8.57;;
16460;SDS011;8341;42.048;24.650;2023-04-24T10:05:53;12.00;;;9.30;;
16460;SDS011;8341;42.048;24.650;2023-04-24T10:08:20;9.95;;;8.68;;
16460;SDS011;8341;42.048;24.650;2023-04-24T10:10:47;10.48;;;8.65;;
16460;SDS011;8341;42.048;24.650;2023-04-24T10:13:14;9.88;;;8.88;;
16460;SDS011;8341;42.048;24.650;2023-04-24T10:15:42;14.85;;;8.70;;
16460;SDS011;8341;42.048;24.650;2023-04-24T10:18:09;10.25;;;8.45;;
16460;SDS011;8341;42.048;24.650;2023-04-24T10:20:38;10.05;;;8.70;;
16460;SDS011;8341;42.048;24.650;2023-04-24T10:23:07;11.85;;;8.43;;
16460;SDS011;8341;42.048;24.650;2023-04-24T10:25:34;16.83;;;9.00;;
16460;SDS011;8341;42.048;24.650;2023-04-24T10:28:03;11.23;;;8.80;;
16460;SDS011;8341;42.048;24.650;2023-04-24T10:30:31;10.80;;;8.45;;
16460;SDS011;8341;42.048;24.650;2023-04-24T10:33:01;10.98;;;8.63;;
16460;SDS011;8341;42.048;24.650;2023-04-24T10:35:30;12.45;;;8.82;;
16460;SDS011;8341;42.048;24.650;2023-04-24T10:37:58;10.43;;;8.27;;
16460;SDS011;8341;42.048;24.650;2023-04-24T10:40:31;10.02;;;8.43;;
16460;SDS011;8341;42.048;24.650;2023-04-24T10:42:59;9.65;;;7.55;;
16460;SDS011;8341;42.048;24.650;2023-04-24T10:45:28;10.95;;;8.20;;
16460;SDS011;8341;42.048;24.650;2023-04-24T10:47:58;8.77;;;7.40;;
16460;SDS011;8341;42.048;24.650;2023-04-24T10:50:27;10.25;;;8.00;;
16460;SDS011;8341;42.048;24.650;2023-04-24T10:53:05;8.40;;;7.00;;
16460;SDS011;8341;42.048;24.650;2023-04-24T10:55:41;11.93;;;7.68;;
16460;SDS011;8341;42.048;24.650;2023-04-24T10:58:12;8.82;;;7.45;;
16460;SDS011;8341;42.048;24.650;2023-04-24T11:00:40;9.50;;;7.25;;
16460;SDS011;8341;42.048;24.650;2023-04-24T11:03:22;8.63;;;7.63;;
16460;SDS011;8341;42.048;24.650;2023-04-24T11:05:51;9.70;;;7.63;;
16460;SDS011;8341;42.048;24.650;2023-04-24T11:08:23;8.95;;;7.53;;
16460;SDS011;8341;42.048;24.650;2023-04-24T11:10:57;7.35;;;6.63;;
16460;SDS011;8341;42.048;24.650;2023-04-24T11:13:27;7.97;;;7.22;;
16460;SDS011;8341;42.048;24.650;2023-04-24T11:16:15;7.45;;;6.75;;
16460;SDS011;8341;42.048;24.650;2023-04-24T11:18:49;8.05;;;6.32;;
16460;SDS011;8341;42.048;24.650;2023-04-24T11:21:19;7.43;;;6.80;;
16460;SDS011;8341;42.048;24.650;2023-04-24T11:23:47;6.97;;;6.30;;
16460;SDS011;8341;42.048;24.650;2023-04-24T11:26:18;7.97;;;6.22;;
16460;SDS011;8341;42.048;24.650;2023-04-24T11:28:49;8.32;;;6.05;;
16460;SDS011;8341;42.048;24.650;2023-04-24T11:31:36;6.45;;;5.80;;
16460;SDS011;8341;42.048;24.650;2023-04-24T11:34:08;8.10;;;6.07;;
16460;SDS011;8341;42.048;24.650;2023-04-24T11:36:36;7.00;;;6.28;;
16460;SDS011;8341;42.048;24.650;2023-04-24T11:39:03;8.30;;;6.70;;
16460;SDS011;8341;42.048;24.650;2023-04-24T11:41:31;7.50;;;6.70;;
16460;SDS011;8341;42.048;24.650;2023-04-24T11:44:00;10.50;;;7.47;;
16460;SDS011;8341;42.048;24.650;2023-04-24T11:46:28;7.75;;;6.95;;
16460;SDS011;8341;42.048;24.650;2023-04-24T11:48:56;7.20;;;6.47;;
16460;SDS011;8341;42.048;24.650;2023-04-24T11:51:24;8.30;;;6.35;;
16460;SDS011;8341;42.048;24.650;2023-04-24T11:53:51;7.57;;;6.97;;
16460;SDS011;8341;42.048;24.650;2023-04-24T11:56:19;7.40;;;6.68;;
16460;SDS011;8341;42.048;24.650;2023-04-24T11:58:48;7.70;;;6.07;;
16460;SDS011;8341;42.048;24.650;2023-04-24T12:01:17;8.07;;;7.25;;
16460;SDS011;8341;42.048;24.650;2023-04-24T12:03:46;7.78;;;6.80;;
16460;SDS011;8341;42.048;24.650;2023-04-24T12:06:14;8.23;;;7.07;;
16460;SDS011;8341;42.048;24.650;2023-04-24T12:08:40;8.55;;;7.75;;
16460;SDS011;8341;42.048;24.650;2023-04-24T12:11:07;9.13;;;6.82;;
16460;SDS011;8341;42.048;24.650;2023-04-24T12:13:34;7.80;;;7.00;;
16460;SDS011;8341;42.048;24.650;2023-04-24T12:16:03;9.70;;;6.85;;
16460;SDS011;8341;42.048;24.650;2023-04-24T12:18:30;9.38;;;7.00;;
16460;SDS011;8341;42.048;24.650;2023-04-24T12:23:43;7.55;;;6.40;;
16460;SDS011;8341;42.048;24.650;2023-04-24T12:26:10;7.50;;;6.55;;
16460;SDS011;8341;42.048;24.650;2023-04-24T12:28:38;8.52;;;6.25;;
16460;SDS011;8341;42.048;24.650;2023-04-24T12:31:07;7.97;;;5.97;;
16460;SDS011;8341;42.048;24.650;2023-04-24T12:33:34;10.25;;;6.78;;
16460;SDS011;8341;42.048;24.650;2023-04-24T12:36:02;7.20;;;6.45;;
16460;SDS011;8341;42.048;24.650;2023-04-24T12:38:30;7.47;;;6.32;;
16460;SDS011;8341;42.048;24.650;2023-04-24T12:41:05;7.18;;;6.50;;
16460;SDS011;8341;42.048;24.650;2023-04-24T12:43:33;6.80;;;6.20;;
16460;SDS011;8341;42.048;24.650;2023-04-24T12:46:01;7.32;;;6.50;;
16460;SDS011;8341;42.048;24.650;2023-04-24T12:48:29;7.00;;;6.30;;
16460;SDS011;8341;42.048;24.650;2023-04-24T12:50:57;8.73;;;6.93;;
16460;SDS011;8341;42.048;24.650;2023-04-24T12:53:26;6.95;;;6.30;;
16460;SDS011;8341;42.048;24.650;2023-04-24T12:55:55;8.40;;;6.57;;
16460;SDS011;8341;42.048;24.650;2023-04-24T12:58:22;7.47;;;5.80;;
16460;SDS011;8341;42.048;24.650;2023-04-24T13:00:48;7.60;;;6.53;;
16460;SDS011;8341;42.048;24.650;2023-04-24T13:03:15;7.18;;;6.30;;
16460;SDS011;8341;42.048;24.650;2023-04-24T13:05:44;8.95;;;6.50;;
16460;SDS011;8341;42.048;24.650;2023-04-24T13:08:10;7.22;;;6.15;;
16460;SDS011;8341;42.048;24.650;2023-04-24T13:10:38;6.72;;;6.07;;
16460;SDS011;8341;42.048;24.650;2023-04-24T13:13:05;7.20;;;6.03;;
16460;SDS011;8341;42.048;24.650;2023-04-24T13:15:32;10.90;;;6.55;;
16460;SDS011;8341;42.048;24.650;2023-04-24T13:17:59;8.05;;;6.30;;
16460;SDS011;8341;42.048;24.650;2023-04-24T13:20:26;6.90;;;6.30;;
16460;SDS011;8341;42.048;24.650;2023-04-24T13:22:54;7.82;;;6.65;;
16460;SDS011;8341;42.048;24.650;2023-04-24T13:25:21;7.20;;;6.30;;
16460;SDS011;8341;42.048;24.650;2023-04-24T13:27:48;7.78;;;6.72;;
16460;SDS011;8341;42.048;24.650;2023-04-24T13:30:15;6.63;;;6.03;;
16460;SDS011;8341;42.048;24.650;2023-04-24T13:32:42;8.27;;;5.70;;
16460;SDS011;8341;42.048;24.650;2023-04-24T13:35:09;7.13;;;6.03;;
16460;SDS011;8341;42.048;24.650;2023-04-24T13:37:36;7.22;;;5.60;;
16460;SDS011;8341;42.048;24.650;2023-04-24T13:40:05;8.50;;;5.07;;
16460;SDS011;8341;42.048;24.650;2023-04-24T13:42:33;5.40;;;4.90;;
16460;SDS011;8341;42.048;24.650;2023-04-24T13:45:00;8.10;;;5.00;;
16460;SDS011;8341;42.048;24.650;2023-04-24T13:47:26;6.80;;;4.90;;
16460;SDS011;8341;42.048;24.650;2023-04-24T13:49:53;6.18;;;5.18;;
16460;SDS011;8341;42.048;24.650;2023-04-24T13:52:20;7.75;;;5.32;;
16460;SDS011;8341;42.048;24.650;2023-04-24T13:54:47;6.30;;;5.53;;
16460;SDS011;8341;42.048;24.650;2023-04-24T13:57:15;5.78;;;5.15;;
16460;SDS011;8341;42.048;24.650;2023-04-24T13:59:42;7.32;;;4.97;;
16460;SDS011;8341;42.048;24.650;2023-04-24T14:02:10;5.97;;;4.43;;
16460;SDS011;8341;42.048;24.650;2023-04-24T14:04:36;5.70;;;5.10;;
16460;SDS011;8341;42.048;24.650;2023-04-24T14:07:03;5.05;;;4.60;;
16460;SDS011;8341;42.048;24.650;2023-04-24T14:09:30;5.13;;;4.63;;
16460;SDS011;8341;42.048;24.650;2023-04-24T14:11:57;6.28;;;4.90;;
16460;SDS011;8341;42.048;24.650;2023-04-24T14:14:25;5.40;;;4.80;;
16460;SDS011;8341;42.048;24.650;2023-04-24T14:16:52;5.03;;;4.57;;
16460;SDS011;8341;42.048;24.650;2023-04-24T14:19:18;4.65;;;4.20;;
16460;SDS011;8341;42.048;24.650;2023-04-24T14:21:46;4.85;;;4.38;;
16460;SDS011;8341;42.048;24.650;2023-04-24T14:24:12;5.63;;;4.50;;
16460;SDS011;8341;42.048;24.650;2023-04-24T14:26:39;5.10;;;4.60;;
16460;SDS011;8341;42.048;24.650;2023-04-24T14:29:06;7.07;;;4.43;;
16460;SDS011;8341;42.048;24.650;2023-04-24T14:31:34;5.60;;;4.45;;
16460;SDS011;8341;42.048;24.650;2023-04-24T14:34:01;5.65;;;4.55;;
16460;SDS011;8341;42.048;24.650;2023-04-24T14:36:27;4.72;;;4.32;;
16460;SDS011;8341;42.048;24.650;2023-04-24T14:38:55;5.85;;;4.70;;
16460;SDS011;8341;42.048;24.650;2023-04-24T14:41:22;5.75;;;4.45;;
16460;SDS011;8341;42.048;24.650;2023-04-24T14:43:49;6.93;;;4.63;;
16460;SDS011;8341;42.048;24.650;2023-04-24T14:46:15;7.28;;;5.00;;
16460;SDS011;8341;42.048;24.650;2023-04-24T14:48:43;5.60;;;4.97;;
16460;SDS011;8341;42.048;24.650;2023-04-24T14:51:10;6.10;;;4.80;;
16460;SDS011;8341;42.048;24.650;2023-04-24T14:53:37;5.75;;;5.25;;
16460;SDS011;8341;42.048;24.650;2023-04-24T14:56:04;6.60;;;5.28;;
16460;SDS011;8341;42.048;24.650;2023-04-24T14:58:31;6.68;;;4.63;;
16460;SDS011;8341;42.048;24.650;2023-04-24T15:00:58;5.72;;;5.22;;
16460;SDS011;8341;42.048;24.650;2023-04-24T15:03:25;7.97;;;5.07;;
16460;SDS011;8341;42.048;24.650;2023-04-24T15:05:53;5.53;;;4.90;;
16460;SDS011;8341;42.048;24.650;2023-04-24T15:08:20;3.90;;;3.50;;
16460;SDS011;8341;42.048;24.650;2023-04-24T15:10:47;3.95;;;3.25;;